createdAt,value
2022-09-12T00:02:05.876Z,80.14
2022-09-12T00:04:34.337Z,79.99
2022-09-12T00:07:03.588Z,79.90
2022-09-12T00:09:32.172Z,79.97
2022-09-12T00:12:00.459Z,80.11
2022-09-12T00:14:28.672Z,80.22
2022-09-12T00:17:02.860Z,80.29
2022-09-12T00:19:31.359Z,80.43
2022-09-12T00:22:00.267Z,81.11
2022-09-12T00:24:28.791Z,81.17
2022-09-12T00:26:58.725Z,81.20
2022-09-12T00:29:28.287Z,80.93
2022-09-12T00:31:56.707Z,80.88
2022-09-12T00:34:25.724Z,81.13
2022-09-12T00:36:54.196Z,80.82
2022-09-12T00:39:22.453Z,80.85
2022-09-12T00:41:50.907Z,81.25
2022-09-12T00:44:22.299Z,81.13
2022-09-12T00:46:57.841Z,80.85
2022-09-12T00:49:48.642Z,80.74
2022-09-12T00:52:26.055Z,81.03
2022-09-12T00:55:03.009Z,80.99
2022-09-12T00:58:03.426Z,81.52
2022-09-12T01:00:32.529Z,81.37
2022-09-12T01:03:06.348Z,81.20
2022-09-12T01:05:37.640Z,81.27
2022-09-12T01:08:07.369Z,81.15
2022-09-12T01:10:40.315Z,81.35
2022-09-12T01:13:11.632Z,81.42
2022-09-12T01:15:40.766Z,81.32
2022-09-12T01:18:15.385Z,81.31
2022-09-12T01:21:05.576Z,81.61
2022-09-12T01:24:06.485Z,81.86
2022-09-12T01:26:43.716Z,82.50
2022-09-12T01:29:49.950Z,83.11
2022-09-12T01:32:27.710Z,83.17
2022-09-12T01:35:26.280Z,83.35
2022-09-12T01:38:13.905Z,83.00
2022-09-12T01:41:04.233Z,83.65
2022-09-12T01:43:42.707Z,83.83
2022-09-12T01:46:14.461Z,83.44
2022-09-12T01:48:48.538Z,83.59
2022-09-12T01:51:38.542Z,83.39
2022-09-12T01:54:21.079Z,83.56
2022-09-12T01:56:55.428Z,83.11
2022-09-12T01:59:28.889Z,82.99
2022-09-12T02:02:06.663Z,82.76
2022-09-12T02:04:45.146Z,82.30
2022-09-12T02:07:21.784Z,82.26
2022-09-12T02:10:17.203Z,82.23
2022-09-12T02:12:58.776Z,82.53
2022-09-12T02:15:34.561Z,82.70
2022-09-12T02:18:06.141Z,82.90
2022-09-12T02:20:48.628Z,82.91
2022-09-12T02:23:29.304Z,83.32
2022-09-12T02:26:03.817Z,83.52
2022-09-12T02:28:40.834Z,83.73
2022-09-12T02:31:29.204Z,83.79
2022-09-12T02:34:21.450Z,83.72
2022-09-12T02:37:17.778Z,84.30
2022-09-12T02:39:47.628Z,84.60
2022-09-12T02:42:18.289Z,85.01
2022-09-12T02:44:47.657Z,84.94
2022-09-12T02:47:28.708Z,85.02
2022-09-12T02:49:58.920Z,84.97
2022-09-12T02:52:29.185Z,85.39
2022-09-12T02:54:58.805Z,85.18
2022-09-12T02:57:28.850Z,85.89
2022-09-12T03:00:04.269Z,86.22
2022-09-12T03:02:54.456Z,86.81
2022-09-12T03:05:40.849Z,87.12
2022-09-12T03:08:25.511Z,86.96
2022-09-12T03:11:06.413Z,86.84
2022-09-12T03:13:49.469Z,86.67
2022-09-12T03:16:25.515Z,85.26
2022-09-12T03:19:12.711Z,85.20
2022-09-12T03:22:00.724Z,85.47
2022-09-12T03:24:53.183Z,85.03
2022-09-12T03:27:29.748Z,85.05
2022-09-12T03:30:00.359Z,84.75
2022-09-12T03:32:45.159Z,84.37
2022-09-12T03:35:22.246Z,84.51
2022-09-12T03:37:53.279Z,84.35
2022-09-12T03:40:21.879Z,84.23
2022-09-12T03:42:50.377Z,84.50
2022-09-12T03:45:18.832Z,84.52
2022-09-12T03:47:47.158Z,84.67
2022-09-12T03:50:15.926Z,84.52
2022-09-12T03:52:46.067Z,84.43
2022-09-12T03:55:14.592Z,84.70
2022-09-12T03:57:43.781Z,84.83
2022-09-12T04:00:19.544Z,84.69
2022-09-12T04:02:54.500Z,83.50
2022-09-12T04:05:23.271Z,84.24
2022-09-12T04:07:52.785Z,84.94
2022-09-12T04:10:21.347Z,84.59
2022-09-12T04:12:51.344Z,84.77
2022-09-12T04:15:19.816Z,84.34
2022-09-12T04:17:48.069Z,84.21
2022-09-12T04:20:16.654Z,84.05
2022-09-12T04:22:46.642Z,83.20
2022-09-12T04:25:15.539Z,82.82
2022-09-12T04:27:43.740Z,82.74
2022-09-12T04:30:12.757Z,83.05
2022-09-12T04:32:41.682Z,83.04
2022-09-12T04:35:12.544Z,83.22
2022-09-12T04:37:41.399Z,83.53
2022-09-12T04:40:11.173Z,83.12
2022-09-12T04:42:46.727Z,83.90
2022-09-12T04:45:17.911Z,84.26
2022-09-12T04:47:47.020Z,83.47
2022-09-12T04:50:17.388Z,83.39
2022-09-12T04:52:54.448Z,83.47
2022-09-12T04:55:26.497Z,83.52
2022-09-12T04:57:54.808Z,82.70
2022-09-12T05:00:23.682Z,81.86
2022-09-12T05:02:52.824Z,82.18
2022-09-12T05:05:22.258Z,81.22
2022-09-12T05:07:50.802Z,80.97
2022-09-12T05:10:19.371Z,80.58
2022-09-12T05:12:49.692Z,80.19
2022-09-12T05:15:20.699Z,79.23
2022-09-12T05:17:52.019Z,77.70
2022-09-12T05:20:21.195Z,76.83
2022-09-12T05:22:51.151Z,76.36
2022-09-12T05:25:20.110Z,75.65
2022-09-12T05:27:56.226Z,74.71
2022-09-12T05:30:26.000Z,74.31
2022-09-12T05:32:54.735Z,74.07
2022-09-12T05:35:23.497Z,73.35
2022-09-12T05:37:52.917Z,73.05
2022-09-12T05:40:21.736Z,72.12
2022-09-12T05:42:50.563Z,73.03
2022-09-12T05:45:19.335Z,72.79
2022-09-12T05:47:49.220Z,71.68
2022-09-12T05:50:18.018Z,71.74
2022-09-12T05:52:50.862Z,71.54
2022-09-12T05:55:19.732Z,71.60
2022-09-12T05:57:48.716Z,68.72
2022-09-12T06:00:21.753Z,69.36
2022-09-12T06:02:56.572Z,67.70
2022-09-12T06:05:25.399Z,67.48
2022-09-12T06:07:56.411Z,68.09
2022-09-12T06:10:28.901Z,66.44
2022-09-12T06:12:58.576Z,65.88
2022-09-12T06:15:29.803Z,60.75
2022-09-12T06:18:00.364Z,61.50
2022-09-12T06:20:29.544Z,61.00
2022-09-12T06:23:00.624Z,60.49
2022-09-12T06:25:32.141Z,59.76
2022-09-12T06:28:05.601Z,60.39
2022-09-12T06:30:36.789Z,60.16
2022-09-12T06:33:17.183Z,60.02
2022-09-12T06:36:12.530Z,58.50
2022-09-12T06:38:43.033Z,59.48
2022-09-12T06:41:12.795Z,57.69
2022-09-12T06:43:43.188Z,57.22
2022-09-12T06:46:16.421Z,57.58
2022-09-12T06:48:46.787Z,58.48
2022-09-12T06:51:18.277Z,57.36
2022-09-12T06:53:51.278Z,58.48
2022-09-12T06:56:21.729Z,57.73
2022-09-12T06:58:57.353Z,55.79
2022-09-12T07:01:45.756Z,54.79
2022-09-12T07:04:16.552Z,55.18
2022-09-12T07:06:57.938Z,56.42
2022-09-12T07:09:36.155Z,55.55
2022-09-12T07:12:18.057Z,52.00
2022-09-12T07:15:02.450Z,51.29
2022-09-12T07:17:41.402Z,46.18
2022-09-12T07:20:19.275Z,47.78
2022-09-12T07:23:14.937Z,46.25
2022-09-12T07:26:00.239Z,43.04
2022-09-12T07:28:42.067Z,44.14
2022-09-12T07:31:21.824Z,45.23
2022-09-12T07:34:05.924Z,44.43
2022-09-12T07:36:43.678Z,45.80
2022-09-12T07:39:24.055Z,45.58
2022-09-12T07:41:59.737Z,45.43
2022-09-12T07:44:37.743Z,44.42
2022-09-12T07:47:15.782Z,42.22
2022-09-12T07:49:48.385Z,42.62
2022-09-12T07:52:26.809Z,41.18
2022-09-12T07:55:01.647Z,42.01
2022-09-12T07:57:32.580Z,40.91
2022-09-12T08:01:14.820Z,41.40
2022-09-12T08:03:58.161Z,42.54
2022-09-12T08:06:32.901Z,41.55
2022-09-12T08:09:14.070Z,40.85
2022-09-12T08:11:53.192Z,41.52
2022-09-12T12:06:24.347Z,37.45
2022-09-12T12:08:56.398Z,37.23
2022-09-12T12:11:38.456Z,36.82
2022-09-12T12:14:21.830Z,36.78
2022-09-12T12:16:55.064Z,36.39
2022-09-12T12:19:38.937Z,37.59
2022-09-12T12:22:23.546Z,37.39
2022-09-12T12:25:18.348Z,38.14
2022-09-12T12:28:04.010Z,36.97
2022-09-12T12:30:39.746Z,36.73
2022-09-12T12:33:13.360Z,36.75
2022-09-12T12:36:01.891Z,35.87
2022-09-12T12:38:43.674Z,36.36
2022-09-12T12:41:19.083Z,36.17
2022-09-12T12:43:53.528Z,36.07
2022-09-12T12:46:28.827Z,35.80
2022-09-12T12:49:06.675Z,36.51
2022-09-12T12:51:38.044Z,37.95
2022-09-12T12:54:29.334Z,36.97
2022-09-12T12:57:14.037Z,36.14
2022-09-12T12:59:53.980Z,36.70
2022-09-12T13:02:40.814Z,36.55
2022-09-12T13:05:24.299Z,37.32
2022-09-12T13:07:57.767Z,38.31
2022-09-12T13:10:32.307Z,38.63
2022-09-12T13:13:05.568Z,38.78
2022-09-12T13:15:39.976Z,39.11
2022-09-12T13:18:19.194Z,39.54
2022-09-12T13:21:14.844Z,39.71
2022-09-12T13:23:47.074Z,40.15
2022-09-12T13:26:26.734Z,40.37
2022-09-12T13:29:18.668Z,41.06
2022-09-12T13:31:59.086Z,40.97
2022-09-12T13:34:30.681Z,41.57
2022-09-12T13:37:31.644Z,42.23
2022-09-12T13:40:33.261Z,42.38
2022-09-12T13:43:28.118Z,42.36
2022-09-12T13:46:12.425Z,42.18
2022-09-12T13:48:48.343Z,41.78
2022-09-12T13:51:33.352Z,42.16
2022-09-12T13:54:09.212Z,42.75
2022-09-12T13:56:51.181Z,43.04
2022-09-12T13:59:34.750Z,43.94
2022-09-12T14:02:23.855Z,44.18
2022-09-12T14:05:13.281Z,44.53
2022-09-12T14:07:58.563Z,44.93
2022-09-12T14:10:34.449Z,45.05
2022-09-12T14:13:13.115Z,44.51
2022-09-12T14:15:50.190Z,44.98
2022-09-12T14:18:30.610Z,45.42
2022-09-12T14:21:12.661Z,45.63
2022-09-12T14:23:49.839Z,46.04
2022-09-12T14:26:18.791Z,46.06
2022-09-12T14:28:54.417Z,45.91
2022-09-12T14:31:34.217Z,46.51
2022-09-12T14:34:13.808Z,46.58
2022-09-12T14:36:48.391Z,46.28
2022-09-12T14:39:33.917Z,46.55
2022-09-12T14:42:28.923Z,46.94
2022-09-12T14:45:01.917Z,47.19
2022-09-12T14:47:40.626Z,47.74
2022-09-12T14:50:33.251Z,47.85
2022-09-12T14:53:28.920Z,48.58
2022-09-12T14:56:17.020Z,48.72
2022-09-12T14:58:52.654Z,49.03
2022-09-12T15:01:25.160Z,49.53
2022-09-12T15:03:58.184Z,49.76
2022-09-12T15:06:38.200Z,49.91
2022-09-12T15:09:13.340Z,49.98
2022-09-12T15:11:46.820Z,50.06
2022-09-12T15:14:19.652Z,50.56
2022-09-12T15:16:53.728Z,50.83
2022-09-12T15:19:22.896Z,51.03
2022-09-12T15:21:58.435Z,51.73
2022-09-12T15:24:28.594Z,51.86
2022-09-12T15:26:57.182Z,51.76
2022-09-12T15:29:32.508Z,52.73
2022-09-12T15:32:02.892Z,52.62
2022-09-12T15:34:38.117Z,52.93
2022-09-12T15:37:16.815Z,53.55
2022-09-12T15:39:46.984Z,53.74
2022-09-12T15:42:17.179Z,54.39
2022-09-12T15:44:46.060Z,54.38
2022-09-12T15:47:14.733Z,55.04
2022-09-12T15:49:49.712Z,55.62
2022-09-12T15:52:20.552Z,55.73
2022-09-12T15:54:52.501Z,55.76
2022-09-12T15:57:23.289Z,56.44
2022-09-12T16:00:01.032Z,56.51
2022-09-12T16:02:36.461Z,56.56
2022-09-12T16:05:06.733Z,56.82
2022-09-12T16:07:41.164Z,56.76
2022-09-12T16:10:17.011Z,56.84
2022-09-12T16:12:46.366Z,57.23
2022-09-12T16:15:32.087Z,57.69
2022-09-12T16:18:04.680Z,58.71
2022-09-12T16:20:42.751Z,58.56
2022-09-12T16:23:22.171Z,58.56
2022-09-12T16:26:09.464Z,59.61
2022-09-12T16:28:44.708Z,59.93
2022-09-12T16:31:21.669Z,59.89
2022-09-12T16:33:55.182Z,59.92
2022-09-12T16:36:31.500Z,59.65
2022-09-12T16:39:00.450Z,59.92
2022-09-12T16:41:29.222Z,59.83
2022-09-12T16:44:00.438Z,59.80
2022-09-12T16:46:32.000Z,60.17
2022-09-12T16:49:06.487Z,60.10
2022-09-12T16:51:39.466Z,60.22
2022-09-12T16:54:15.374Z,60.33
2022-09-12T16:56:46.112Z,60.46
2022-09-12T16:59:17.598Z,60.45
2022-09-12T17:01:46.162Z,60.54
2022-09-12T17:04:15.673Z,61.13
2022-09-12T17:06:49.104Z,61.79
2022-09-12T17:09:23.287Z,62.03
2022-09-12T17:11:53.493Z,62.65
2022-09-12T17:14:27.845Z,63.24
2022-09-12T17:16:56.539Z,63.55
2022-09-12T17:19:28.250Z,63.58
2022-09-12T17:22:03.819Z,64.05
2022-09-12T17:24:35.462Z,64.17
2022-09-12T17:27:04.400Z,64.27
2022-09-12T17:29:34.634Z,64.12
2022-09-12T17:32:05.058Z,64.96
2022-09-12T17:34:37.740Z,64.62
2022-09-12T17:37:06.081Z,64.69
2022-09-12T17:39:34.488Z,65.20
2022-09-12T17:42:08.588Z,65.62
2022-09-12T17:44:38.338Z,66.19
2022-09-12T17:47:06.837Z,67.06
2022-09-12T17:49:38.452Z,67.35
2022-09-12T17:52:06.945Z,67.57
2022-09-12T17:54:35.431Z,67.58
2022-09-12T17:57:05.209Z,67.36
2022-09-12T17:59:33.724Z,68.11
2022-09-12T18:02:14.306Z,68.15
2022-09-12T18:04:48.603Z,68.42
2022-09-12T18:07:19.029Z,68.37
2022-09-12T18:09:48.068Z,68.57
2022-09-12T18:12:19.097Z,68.53
2022-09-12T18:14:51.818Z,68.80
2022-09-12T18:17:21.739Z,69.96
2022-09-12T18:19:53.720Z,70.31
2022-09-12T18:22:22.482Z,70.26
2022-09-12T18:24:55.703Z,70.37
2022-09-12T18:27:34.689Z,70.68
2022-09-12T18:30:20.685Z,71.84
2022-09-12T18:32:51.670Z,72.65
2022-09-12T18:35:23.109Z,72.54
2022-09-12T18:37:54.481Z,73.54
2022-09-12T18:40:24.798Z,73.65
2022-09-12T18:42:54.816Z,73.25
2022-09-12T18:45:25.564Z,73.39
2022-09-12T18:47:59.330Z,73.75
2022-09-12T18:50:27.773Z,73.66
2022-09-12T18:52:59.654Z,73.67
2022-09-12T18:55:32.254Z,73.12
2022-09-12T18:58:01.977Z,72.76
2022-09-12T19:00:31.155Z,72.93
2022-09-12T19:02:59.719Z,72.52
2022-09-12T19:05:30.145Z,72.56
2022-09-12T19:07:58.661Z,72.27
2022-09-12T19:10:28.768Z,72.09
2022-09-12T19:12:58.287Z,71.80
2022-09-12T19:15:26.611Z,72.82
2022-09-12T19:17:57.486Z,72.83
2022-09-12T19:20:26.040Z,73.00
2022-09-12T19:22:54.921Z,72.76
2022-09-12T19:25:24.235Z,72.76
2022-09-12T19:27:55.122Z,73.41
2022-09-12T19:30:24.975Z,73.96
2022-09-12T19:32:53.467Z,74.17
2022-09-12T19:35:21.702Z,74.46
2022-09-12T19:37:50.400Z,75.15
2022-09-12T19:40:18.771Z,74.41
2022-09-12T19:42:49.899Z,74.09
2022-09-12T19:45:19.317Z,74.01
2022-09-12T19:47:48.656Z,73.83
2022-09-12T19:50:18.467Z,74.24
2022-09-12T19:52:48.171Z,74.26
2022-09-12T19:55:18.337Z,74.09
2022-09-12T19:57:46.729Z,74.19
2022-09-12T20:00:15.417Z,74.10
2022-09-12T20:02:43.830Z,74.25
2022-09-12T20:05:12.629Z,74.31
2022-09-12T20:07:42.292Z,74.31
2022-09-12T20:10:12.678Z,74.26
2022-09-12T20:12:43.479Z,73.81
2022-09-12T20:15:12.758Z,73.78
2022-09-12T20:17:41.997Z,73.79
2022-09-12T20:20:11.703Z,73.52
2022-09-12T20:22:40.328Z,73.68
2022-09-12T20:25:09.399Z,73.50
2022-09-12T20:27:39.414Z,72.79
2022-09-12T20:30:09.277Z,72.62
2022-09-12T20:32:37.512Z,72.07
2022-09-12T20:35:07.803Z,71.43
2022-09-12T20:37:37.301Z,71.63
2022-09-12T20:40:07.771Z,71.46
2022-09-12T20:42:37.588Z,71.15
2022-09-12T20:45:07.404Z,70.92
2022-09-12T20:47:35.840Z,70.78
2022-09-12T20:50:04.397Z,70.83
2022-09-12T20:52:32.810Z,70.77
2022-09-12T20:55:01.096Z,70.84
2022-09-12T20:57:29.396Z,70.49
2022-09-12T20:59:57.677Z,69.86
2022-09-12T21:02:30.001Z,69.33
2022-09-12T21:04:58.361Z,68.83
2022-09-12T21:07:27.382Z,68.33
2022-09-12T21:09:57.982Z,67.38
2022-09-12T21:12:28.207Z,66.95
2022-09-12T21:14:56.460Z,66.71
2022-09-12T21:17:26.209Z,66.89
2022-09-12T21:19:54.812Z,66.84
2022-09-12T21:22:24.470Z,66.85
2022-09-12T21:24:52.964Z,67.25
2022-09-12T21:27:22.069Z,67.54
2022-09-12T21:29:50.894Z,67.69
2022-09-12T21:32:19.117Z,67.67
2022-09-12T21:34:48.274Z,67.61
2022-09-12T21:37:16.772Z,67.26
2022-09-12T21:39:45.542Z,66.84
2022-09-12T21:42:16.695Z,66.98
2022-09-12T21:44:44.996Z,67.03
2022-09-12T21:47:13.396Z,67.05
2022-09-12T21:49:42.507Z,66.59
2022-09-12T21:52:12.918Z,66.68
2022-09-12T21:54:41.299Z,66.72
2022-09-12T21:57:09.719Z,66.69
2022-09-12T21:59:38.174Z,66.91
2022-09-12T22:02:08.997Z,66.98
2022-09-12T22:04:37.344Z,67.20
2022-09-12T22:07:07.509Z,67.43
2022-09-12T22:09:35.873Z,67.29
2022-09-12T22:12:04.470Z,67.15
2022-09-12T22:14:33.777Z,67.27
2022-09-12T22:17:02.455Z,67.37
2022-09-12T22:19:32.014Z,67.64
2022-09-12T22:22:20.392Z,67.37
2022-09-12T22:24:51.371Z,67.49
2022-09-12T22:27:21.055Z,67.44
2022-09-12T22:29:52.605Z,66.80
2022-09-12T22:32:22.204Z,67.23
2022-09-12T22:34:50.507Z,67.26
2022-09-12T22:37:18.822Z,67.47
2022-09-12T22:39:47.745Z,67.12
2022-09-12T22:42:16.266Z,67.27
2022-09-12T22:44:47.118Z,66.94
2022-09-12T22:47:15.716Z,67.19
2022-09-12T22:49:44.275Z,67.07
2022-09-12T22:52:13.383Z,66.78
2022-09-12T22:54:45.188Z,67.03
2022-09-12T22:57:15.278Z,66.92
2022-09-12T22:59:45.276Z,66.68
2022-09-12T23:02:14.045Z,66.68
2022-09-12T23:04:42.289Z,66.15
2022-09-12T23:07:13.264Z,66.41
2022-09-12T23:09:41.670Z,66.29
2022-09-12T23:12:13.548Z,66.20
2022-09-12T23:14:44.293Z,65.84
2022-09-12T23:17:13.393Z,66.06
2022-09-12T23:19:42.328Z,65.93
2022-09-12T23:22:10.752Z,66.05
2022-09-12T23:24:39.172Z,65.83
2022-09-12T23:27:09.471Z,66.04
2022-09-12T23:29:37.749Z,65.84
2022-09-12T23:32:07.013Z,65.77
2022-09-12T23:34:36.224Z,66.11
2022-09-12T23:37:04.680Z,66.17
2022-09-12T23:39:34.339Z,66.24
2022-09-12T23:42:02.859Z,66.18
2022-09-12T23:44:31.578Z,65.96
2022-09-12T23:47:00.325Z,65.69
2022-09-12T23:49:28.804Z,65.89
2022-09-12T23:51:57.292Z,65.94
2022-09-12T23:54:25.672Z,66.09
2022-09-12T23:56:54.297Z,66.28
2022-09-12T23:59:24.047Z,66.42
